Alcazar de San Juan, Spain
Current Conditions -  °F | °C
As of 8:00 AM on Sunday 26 Oct 2014 (Local Time) from LEAO Reporting Station
Clear Clear  
Wind Chill: 45°   Ceiling: Unl
Heat Index: 45°   Visibility: 6mi
Dew Point: 41°   Wind: 0mph
Humidity: 87%   Direction: NA
Pressure: 30.18"   Gusts: NA
Location:  39.39°N, 3.21°W
Report Text: LEAO 260600Z 00000KT CAVOK 07/05 Q1022
Loading
Personal Weather Stations






























Interactive Weather Map New forecast layout! Learn more

10-Day Weather Forecast

Advertisements
Track Severe Weather on mobile